Time;durP1;ratioP1;P1;durP2;ratioP2;P2;SDS_P1;SDS_P2;PMS_P1;PMS_P2;Temp;Humidity;BMP_temperature;BMP_pressure;BME280_temperature;BME280_humidity;BME280_pressure;Samples;Min_cycle;Max_cycle;Signal;HPM_P1;HPM_P2
2021/07/08 00:00:43;;;;;;;5.80;4.42;;;;;;;21.48;71.91;100825.30;1681015;84;21018;-78
2021/07/08 00:03:09;;;;;;;8.68;5.12;;;;;;;21.49;71.99;100832.84;1692853;84;21083;-79
2021/07/08 00:05:40;;;;;;;5.97;5.00;;;;;;;21.46;72.11;100824.65;1691327;84;22878;-79
2021/07/08 00:08:07;;;;;;;9.28;4.70;;;;;;;21.43;72.13;100831.73;1699466;83;21518;-79
2021/07/08 00:10:38;;;;;;;9.15;4.78;;;;;;;21.41;72.12;100827.86;1688118;83;20964;-79
2021/07/08 00:13:05;;;;;;;9.33;5.22;;;;;;;21.43;72.13;100827.70;1699933;83;21384;-80
2021/07/08 00:15:31;;;;;;;9.08;5.35;;;;;;;21.43;72.15;100833.08;1674311;84;21009;-79
2021/07/08 00:17:59;;;;;;;9.40;4.75;;;;;;;21.41;72.19;100840.47;1668103;84;21924;-80
2021/07/08 00:20:27;;;;;;;6.40;4.70;;;;;;;21.36;72.35;100837.50;1693911;84;20981;-79
2021/07/08 00:22:53;;;;;;;8.78;5.35;;;;;;;21.31;72.49;100842.05;1685816;84;21144;-80
2021/07/08 00:25:23;;;;;;;6.50;4.80;;;;;;;21.30;72.56;100843.58;1668373;84;21093;-79
2021/07/08 00:27:50;;;;;;;11.05;5.40;;;;;;;21.27;72.68;100839.41;1668232;84;21021;-80
2021/07/08 00:30:19;;;;;;;7.37;5.35;;;;;;;21.24;72.88;100845.12;1682038;84;21571;-77
2021/07/08 00:32:47;;;;;;;6.50;5.20;;;;;;;21.20;73.01;100844.30;1685914;84;20962;-77
2021/07/08 00:35:13;;;;;;;6.35;5.45;;;;;;;21.19;73.10;100847.50;1695891;84;21001;-77
2021/07/08 00:37:40;;;;;;;11.95;5.83;;;;;;;21.18;73.20;100855.74;1689636;84;21044;-77
2021/07/08 00:40:10;;;;;;;8.70;5.65;;;;;;;21.15;73.32;100849.72;1676665;84;21100;-77
2021/07/08 00:42:37;;;;;;;8.58;5.40;;;;;;;21.18;73.39;100851.72;1651967;84;22479;-79
2021/07/08 00:45:07;;;;;;;6.22;5.40;;;;;;;21.16;73.40;100855.92;1674378;84;20981;-79
2021/07/08 00:47:34;;;;;;;9.28;5.28;;;;;;;21.17;73.47;100858.11;1671068;84;20993;-80
2021/07/08 00:50:00;;;;;;;9.08;5.55;;;;;;;21.19;73.47;100848.84;1691590;84;21024;-79
2021/07/08 00:52:28;;;;;;;8.43;5.20;;;;;;;21.23;73.43;100857.37;1675089;84;21020;-79
2021/07/08 00:54:56;;;;;;;10.30;5.37;;;;;;;21.26;73.37;100861.06;1670826;84;21067;-79
2021/07/08 00:57:24;;;;;;;6.58;5.37;;;;;;;21.26;73.31;100857.90;1682476;84;21051;-77
2021/07/08 00:59:53;;;;;;;7.03;5.30;;;;;;;21.26;73.31;100857.90;1672208;84;21060;-80
2021/07/08 01:02:20;;;;;;;8.55;5.25;;;;;;;21.27;73.26;100858.73;1670453;84;21494;-79
2021/07/08 01:04:49;;;;;;;6.75;5.47;;;;;;;21.30;73.13;100855.67;1695568;84;21061;-76
2021/07/08 01:07:20;;;;;;;6.47;5.10;;;;;;;21.32;73.06;100860.36;1674602;84;21068;-77
2021/07/08 01:09:49;;;;;;;7.58;5.70;;;;;;;21.29;73.04;100864.25;1673085;84;21033;-78
2021/07/08 01:12:15;;;;;;;6.70;5.53;;;;;;;21.24;73.10;100862.59;1668208;84;21001;-78
2021/07/08 01:14:42;;;;;;;10.43;5.75;;;;;;;21.22;73.17;100863.77;1687772;83;21498;-78
2021/07/08 01:17:10;;;;;;;10.18;5.62;;;;;;;21.19;73.16;100868.16;1693365;83;21588;-78
2021/07/08 01:19:41;;;;;;;7.85;5.30;;;;;;;21.17;73.23;100865.66;1687213;83;21435;-78
2021/07/08 01:22:07;;;;;;;7.83;5.62;;;;;;;21.14;73.33;100871.39;1692637;83;21121;-78
2021/07/08 01:24:34;;;;;;;8.08;5.67;;;;;;;21.14;73.33;100876.26;1702167;83;21110;-78
2021/07/08 01:27:00;;;;;;;9.53;5.60;;;;;;;21.14;73.33;100879.45;1692845;84;21493;-78
2021/07/08 01:29:28;;;;;;;6.95;5.40;;;;;;;21.12;73.34;100880.95;1710845;83;21042;-77
2021/07/08 01:31:55;;;;;;;8.65;5.30;;;;;;;21.11;73.35;100880.63;1718907;83;21725;-77
2021/07/08 01:34:22;;;;;;;6.97;5.47;;;;;;;21.09;73.41;100883.16;1704953;83;21401;-78
2021/07/08 01:36:49;;;;;;;7.65;5.47;;;;;;;21.05;73.50;100884.55;1694262;83;21038;-77
2021/07/08 01:39:17;;;;;;;7.40;5.25;;;;;;;21.02;73.58;100888.91;1708833;83;21018;-78
2021/07/08 01:41:44;;;;;;;8.55;5.40;;;;;;;20.98;73.64;100888.95;1709312;83;21002;-77
2021/07/08 01:44:11;;;;;;;6.33;5.58;;;;;;;20.93;73.74;100893.48;1692786;84;22211;-77
2021/07/08 01:46:38;;;;;;;6.22;5.40;;;;;;;20.88;73.82;100897.22;1698239;83;21023;-77
2021/07/08 01:49:04;;;;;;;6.83;5.50;;;;;;;20.85;73.90;100898.92;1678614;84;21457;-79
2021/07/08 01:51:32;;;;;;;8.93;5.45;;;;;;;20.83;73.99;100896.90;1706857;83;21379;-78
2021/07/08 01:53:59;;;;;;;7.58;5.37;;;;;;;20.81;74.04;100895.73;1696239;83;21069;-78
2021/07/08 01:56:26;;;;;;;7.62;5.53;;;;;;;20.77;74.16;100890.91;1706902;83;22733;-77
2021/07/08 01:58:53;;;;;;;5.80;5.20;;;;;;;20.75;74.27;100889.75;1717466;83;21099;-78
2021/07/08 02:01:21;;;;;;;8.40;5.20;;;;;;;20.76;74.28;100895.45;1717987;83;20978;-77
2021/07/08 02:03:49;;;;;;;6.35;5.42;;;;;;;20.76;74.29;100898.64;1719489;83;21034;-78
2021/07/08 02:06:15;;;;;;;12.10;5.70;;;;;;;20.74;74.37;100897.95;1712916;83;21679;-78
2021/07/08 02:08:42;;;;;;;7.15;5.50;;;;;;;20.71;74.39;100891.09;1713683;83;22457;-78
2021/07/08 02:11:11;;;;;;;8.18;5.60;;;;;;;20.69;74.52;100891.78;1701458;83;21018;-77
2021/07/08 02:13:38;;;;;;;10.13;5.95;;;;;;;20.68;74.68;100894.64;1708491;83;21029;-78
2021/07/08 02:16:06;;;;;;;10.55;5.95;;;;;;;20.69;74.81;100899.00;1713973;83;20982;-78
2021/07/08 02:18:33;;;;;;;7.25;5.70;;;;;;;20.71;74.93;100899.14;1705108;83;20983;-78
2021/07/08 02:20:59;;;;;;;6.87;6.00;;;;;;;20.72;74.91;100899.47;1692758;84;22237;-78
2021/07/08 02:23:27;;;;;;;8.68;6.05;;;;;;;20.75;74.91;100893.77;1708175;83;21536;-78
2021/07/08 02:25:53;;;;;;;7.12;5.97;;;;;;;20.77;74.96;100904.33;1714920;83;21390;-78
2021/07/08 02:28:20;;;;;;;8.93;5.80;;;;;;;20.76;74.96;100908.03;1704059;83;21062;-78
2021/07/08 02:30:46;;;;;;;6.87;5.17;;;;;;;20.75;75.00;100908.55;1718717;83;21121;-79
2021/07/08 02:33:13;;;;;;;7.37;5.62;;;;;;;20.74;75.03;100904.66;1721736;83;21839;-78
2021/07/08 02:35:39;;;;;;;6.95;5.70;;;;;;;20.72;75.09;100906.69;1711698;83;21046;-78
2021/07/08 02:38:06;;;;;;;8.28;5.92;;;;;;;20.71;75.10;100914.42;1693331;83;20986;-78
2021/07/08 02:40:35;;;;;;;7.30;6.30;;;;;;;20.70;75.23;100910.90;1708773;83;21117;-78
2021/07/08 02:43:03;;;;;;;6.75;6.03;;;;;;;20.69;75.33;100917.78;1693203;83;20982;-77
2021/07/08 02:45:34;;;;;;;10.50;6.05;;;;;;;20.68;75.42;100922.83;1699192;83;22687;-78
2021/07/08 02:48:04;;;;;;;7.75;5.42;;;;;;;20.66;75.53;100916.30;1709357;83;20986;-78
2021/07/08 02:50:30;;;;;;;6.78;6.08;;;;;;;20.66;75.65;100920.83;1711409;83;21067;-78
2021/07/08 02:52:59;;;;;;;9.23;6.05;;;;;;;20.66;75.76;100914.95;1692772;84;21000;-78
2021/07/08 02:55:26;;;;;;;13.40;5.70;;;;;;;20.68;75.88;100916.12;1699585;83;20963;-77
2021/07/08 02:57:52;;;;;;;8.83;5.92;;;;;;;20.70;75.93;100913.58;1710952;83;21851;-78
2021/07/08 03:00:23;;;;;;;7.65;5.58;;;;;;;20.73;76.01;100923.12;1703096;82;21499;-78
2021/07/08 03:02:51;;;;;;;10.10;5.25;;;;;;;20.76;76.08;100919.61;1693987;83;21003;-78
2021/07/08 03:05:17;;;;;;;8.90;5.60;;;;;;;20.83;76.04;100921.90;1699461;83;21023;-78
2021/07/08 03:07:45;;;;;;;6.08;5.47;;;;;;;20.91;76.00;100925.56;1706453;83;21000;-77
2021/07/08 03:10:14;;;;;;;11.85;6.00;;;;;;;20.99;75.83;100926.36;1692659;83;22252;-77
2021/07/08 03:12:40;;;;;;;10.58;5.75;;;;;;;21.04;75.74;100924.51;1692927;83;21059;-78
2021/07/08 03:15:10;;;;;;;8.33;5.90;;;;;;;21.07;75.76;100924.14;1655910;85;21037;-78
2021/07/08 03:17:37;;;;;;;6.33;5.70;;;;;;;21.11;75.84;100928.14;1712069;82;21080;-78
2021/07/08 03:20:10;;;;;;;7.20;5.80;;;;;;;21.15;75.83;100930.31;1714074;82;20945;-78
2021/07/08 03:22:36;;;;;;;8.00;6.33;;;;;;;21.21;75.78;100933.28;1722738;82;22527;-78
2021/07/08 03:25:05;;;;;;;9.68;5.70;;;;;;;21.26;75.70;100934.95;1730725;81;21223;-78
2021/07/08 03:27:33;;;;;;;7.25;5.90;;;;;;;21.31;75.62;100936.09;1718163;82;21444;-78
2021/07/08 03:30:00;;;;;;;7.72;5.90;;;;;;;21.37;75.47;100944.80;1734061;81;21012;-77
2021/07/08 03:32:27;;;;;;;9.53;5.70;;;;;;;21.41;75.38;100939.89;1735987;82;21041;-77
2021/07/08 03:34:53;;;;;;;7.25;5.15;;;;;;;21.48;75.19;100943.55;1711091;82;21817;-78
2021/07/08 03:37:20;;;;;;;9.30;5.20;;;;;;;21.53;74.81;100946.55;1709537;82;21543;-78
2021/07/08 03:39:46;;;;;;;9.08;5.22;;;;;;;21.58;74.47;100945.49;1718468;82;21041;-78
2021/07/08 03:42:12;;;;;;;6.53;5.12;;;;;;;21.64;74.13;100946.13;1732585;82;20934;-78
2021/07/08 03:44:39;;;;;;;7.65;5.30;;;;;;;21.70;73.82;100953.96;1736033;81;21005;-77
2021/07/08 03:47:06;;;;;;;11.63;5.65;;;;;;;21.76;73.57;100954.59;1712762;82;21821;-77
2021/07/08 03:49:32;;;;;;;13.48;5.12;;;;;;;21.82;73.38;100951.20;1730658;82;20993;-77
2021/07/08 03:51:59;;;;;;;5.00;4.50;;;;;;;21.88;73.11;100955.00;1718483;82;20993;-77
2021/07/08 03:54:25;;;;;;;7.03;4.67;;;;;;;21.92;72.44;100962.53;1724229;82;21096;-73
2021/07/08 03:56:51;;;;;;;8.80;4.40;;;;;;;21.97;71.61;100964.67;1707569;82;21489;-77
2021/07/08 03:59:18;;;;;;;7.92;4.50;;;;;;;22.04;70.76;100965.63;1727439;82;22193;-77
2021/07/08 04:01:46;;;;;;;8.18;4.40;;;;;;;22.12;69.91;100968.27;1719065;82;20966;-77
2021/07/08 04:04:12;;;;;;;6.17;4.53;;;;;;;22.17;69.22;100973.09;1708472;82;21010;-75
2021/07/08 04:06:39;;;;;;;6.80;4.03;;;;;;;22.22;68.68;100970.70;1713611;82;21517;-81
2021/07/08 04:09:06;;;;;;;6.30;4.22;;;;;;;22.28;68.18;100976.17;1708756;82;21160;-81
2021/07/08 04:11:33;;;;;;;5.78;3.70;;;;;;;22.33;67.91;100979.67;1715198;82;21773;-81
2021/07/08 04:13:59;;;;;;;6.45;4.20;;;;;;;22.38;67.63;100975.06;1731419;82;20917;-81
2021/07/08 04:16:26;;;;;;;6.00;4.28;;;;;;;22.42;67.21;100973.19;1733230;82;21013;-76
2021/07/08 04:18:53;;;;;;;6.35;3.87;;;;;;;22.47;66.75;100978.00;1720291;82;20977;-79
2021/07/08 04:21:20;;;;;;;7.55;4.00;;;;;;;22.51;66.53;100975.28;1735190;82;20992;-75
2021/07/08 04:23:46;;;;;;;9.03;4.35;;;;;;;22.57;65.98;100978.56;1748542;82;22239;-83
2021/07/08 04:26:12;;;;;;;5.80;4.22;;;;;;;22.60;65.66;100975.52;1734807;82;20937;-82
2021/07/08 04:28:39;;;;;;;9.35;3.83;;;;;;;22.65;65.59;100973.59;1721413;82;21418;-78
2021/07/08 04:31:08;;;;;;;8.18;3.75;;;;;;;22.70;65.45;100976.58;1725400;82;21028;-75
2021/07/08 04:33:39;;;;;;;4.70;3.90;;;;;;;22.77;65.17;100982.87;1725895;82;20956;-73
2021/07/08 04:36:04;;;;;;;5.80;4.15;;;;;;;22.82;64.91;100974.57;1720301;82;22679;-77
2021/07/08 04:38:30;;;;;;;5.92;4.08;;;;;;;22.86;64.78;100975.05;1720495;83;21052;-78
2021/07/08 04:40:57;;;;;;;8.70;3.87;;;;;;;22.91;64.22;100978.03;1722806;82;21028;-78
2021/07/08 04:43:24;;;;;;;8.25;3.90;;;;;;;22.97;63.85;100979.98;1736116;82;21337;-78
2021/07/08 04:45:55;;;;;;;5.30;3.80;;;;;;;23.05;63.85;100981.20;1744644;82;21434;-76
2021/07/08 04:48:19;;;;;;;6.30;4.00;;;;;;;23.11;63.84;100983.67;1744796;82;22828;-77
2021/07/08 04:50:45;;;;;;;5.28;4.08;;;;;;;23.18;63.55;100987.80;1735302;82;21040;-79
2021/07/08 04:53:18;;;;;;;7.08;4.58;;;;;;;23.23;63.39;100992.09;1730825;82;20985;-80
2021/07/08 04:55:45;;;;;;;5.55;4.00;;;;;;;23.30;63.19;100996.55;1721723;82;21075;-77
2021/07/08 04:58:12;;;;;;;7.72;3.85;;;;;;;23.36;62.92;100987.70;1741416;82;21028;-77
2021/07/08 05:00:38;;;;;;;5.50;4.12;;;;;;;23.43;62.89;100991.29;1720157;82;21818;-77
2021/07/08 05:03:07;;;;;;;6.05;3.40;;;;;;;23.51;62.29;100994.39;1718873;83;20933;-77
2021/07/08 05:05:34;;;;;;;5.58;3.60;;;;;;;23.56;61.91;101001.92;1693550;83;20980;-77
2021/07/08 05:08:00;;;;;;;6.75;3.40;;;;;;;23.61;61.19;101005.72;1720293;83;21441;-77
2021/07/08 05:10:27;;;;;;;7.28;3.30;;;;;;;23.65;60.09;101012.42;1720187;83;21048;-77
2021/07/08 05:12:54;;;;;;;4.85;3.00;;;;;;;23.71;59.91;101009.45;1720191;83;22237;-77
2021/07/08 05:15:21;;;;;;;5.12;3.20;;;;;;;23.78;59.28;101013.06;1710547;83;21041;-78
2021/07/08 05:17:48;;;;;;;4.28;3.20;;;;;;;23.81;58.92;101019.41;1707651;82;21463;-77
2021/07/08 05:20:16;;;;;;;6.80;3.10;;;;;;;23.87;58.72;101015.95;1706632;84;21188;-77
2021/07/08 05:22:47;;;;;;;5.53;3.08;;;;;;;23.92;58.45;101015.36;1706742;84;21421;-76
2021/07/08 05:25:15;;;;;;;8.20;3.40;;;;;;;23.98;58.03;101024.04;1706903;84;21820;-77
2021/07/08 05:27:42;;;;;;;7.33;2.92;;;;;;;24.01;57.85;101024.98;1706573;84;20938;-77
2021/07/08 05:30:10;;;;;;;8.95;3.25;;;;;;;24.06;57.85;101025.77;1686335;82;21511;-77
2021/07/08 05:32:36;;;;;;;6.12;3.08;;;;;;;24.12;57.42;101026.33;1706571;82;21024;-77
2021/07/08 05:35:04;;;;;;;8.15;2.92;;;;;;;24.15;56.62;101026.80;1714579;82;20954;-78
2021/07/08 05:37:30;;;;;;;4.33;3.02;;;;;;;24.19;56.25;101028.06;1735973;82;22225;-78
2021/07/08 05:39:57;;;;;;;5.28;3.10;;;;;;;24.23;55.76;101019.91;1736203;82;21025;-78
2021/07/08 05:42:23;;;;;;;4.62;2.83;;;;;;;24.26;56.12;101024.91;1729845;82;21009;-77
2021/07/08 05:44:50;;;;;;;7.95;3.20;;;;;;;24.30;56.40;101026.69;1706864;83;21531;-78
2021/07/08 05:47:16;;;;;;;5.67;3.27;;;;;;;24.32;56.71;101027.38;1706868;83;21006;-78
2021/07/08 05:49:43;;;;;;;5.22;3.15;;;;;;;24.39;56.75;101032.30;1726643;81;21834;-77
2021/07/08 05:52:10;;;;;;;6.58;3.30;;;;;;;24.44;56.15;101036.61;1725927;82;21491;-77
2021/07/08 05:54:36;;;;;;;4.00;2.85;;;;;;;24.47;56.07;101036.72;1706630;83;21578;-77
2021/07/08 05:57:04;;;;;;;5.47;3.30;;;;;;;24.49;56.32;101034.66;1706398;82;20969;-78
2021/07/08 05:59:30;;;;;;;5.62;3.35;;;;;;;24.51;56.31;101032.09;1660310;85;21072;-78
2021/07/08 06:01:57;;;;;;;3.60;2.83;;;;;;;24.56;56.59;101034.19;1712556;82;21772;-77
2021/07/08 06:04:23;;;;;;;4.92;3.25;;;;;;;24.61;56.55;101031.75;1705893;83;21033;-78
2021/07/08 06:06:50;;;;;;;9.75;2.90;;;;;;;24.67;56.11;101034.98;1721209;82;21416;-80
2021/07/08 06:09:16;;;;;;;4.53;2.33;;;;;;;24.74;54.75;101033.17;1720382;82;20986;-78
2021/07/08 06:11:43;;;;;;;5.25;2.70;;;;;;;24.81;53.03;101035.41;1729696;82;21465;-82
2021/07/08 06:14:09;;;;;;;10.48;2.58;;;;;;;24.88;52.54;101036.77;1710445;81;22620;-81
2021/07/08 06:16:35;;;;;;;10.55;2.85;;;;;;;24.94;52.13;101039.20;1749245;82;20950;-81
2021/07/08 06:19:02;;;;;;;7.80;3.62;;;;;;;24.98;52.74;101038.59;1720606;82;21009;-86
2021/07/08 06:21:28;;;;;;;4.05;2.85;;;;;;;25.04;52.23;101031.59;1732443;82;21463;-79
2021/07/08 06:23:55;;;;;;;4.08;2.12;;;;;;;25.10;52.28;101034.86;1720650;82;21371;-77
2021/07/08 06:26:21;;;;;;;7.05;3.08;;;;;;;25.18;51.35;101035.18;1737025;82;21798;-77
2021/07/08 06:28:47;;;;;;;6.17;4.28;;;;;;;25.25;50.65;101036.88;1720267;83;21060;-78
2021/07/08 06:31:14;;;;;;;8.68;3.25;;;;;;;25.29;49.99;101032.76;1700556;83;20965;-84
2021/07/08 06:33:41;;;;;;;4.97;2.30;;;;;;;25.36;50.49;101034.95;1720904;82;20997;-84
2021/07/08 06:36:08;;;;;;;4.90;2.58;;;;;;;25.42;50.78;101040.08;1741181;82;21008;-87
2021/07/08 06:38:35;;;;;;;2.77;2.00;;;;;;;25.48;49.99;101039.77;1747973;82;21817;-87
2021/07/08 06:41:01;;;;;;;5.72;1.98;;;;;;;25.51;48.65;101044.27;1733365;82;21106;-84
2021/07/08 06:43:28;;;;;;;5.17;2.20;;;;;;;25.55;48.16;101037.92;1744231;82;21490;-81
2021/07/08 06:45:56;;;;;;;4.95;2.00;;;;;;;25.60;48.04;101043.05;1721801;82;20957;-83
2021/07/08 06:48:22;;;;;;;5.75;2.17;;;;;;;25.68;47.65;101044.73;1720525;83;20953;-82
2021/07/08 06:50:49;;;;;;;7.58;2.00;;;;;;;25.72;48.22;101046.02;1739889;82;21837;-85
2021/07/08 06:53:15;;;;;;;5.28;2.00;;;;;;;25.79;47.94;101045.52;1733552;82;21374;-84
2021/07/08 06:55:41;;;;;;;4.33;1.85;;;;;;;25.83;47.46;101040.52;1749312;80;21071;-85
2021/07/08 06:58:20;;;;;;;7.95;2.47;;;;;;;25.89;46.24;101047.83;1750163;82;20985;-83
2021/07/08 07:00:47;;;;;;;7.53;2.25;;;;;;;25.94;46.63;101045.31;1736118;82;21142;-85
2021/07/08 07:03:13;;;;;;;9.18;2.30;;;;;;;26.00;46.72;101053.14;1745574;82;21795;-84
2021/07/08 07:05:40;;;;;;;5.37;2.00;;;;;;;26.07;46.88;101056.18;1747103;82;21036;-81
2021/07/08 07:08:07;;;;;;;7.20;1.80;;;;;;;26.16;46.81;101051.40;1734504;82;21375;-85
2021/07/08 07:10:33;;;;;;;4.55;2.00;;;;;;;26.25;46.34;101053.70;1729107;82;21437;-83
2021/07/08 07:13:00;;;;;;;6.95;2.08;;;;;;;26.33;46.38;101059.40;1720737;83;21031;-83
2021/07/08 07:15:29;;;;;;;6.92;2.10;;;;;;;26.40;45.02;101058.08;1713456;82;22269;-83
2021/07/08 07:17:57;;;;;;;4.03;1.82;;;;;;;26.46;44.67;101058.61;1715256;82;21367;-83
2021/07/08 07:20:24;;;;;;;4.00;1.77;;;;;;;26.50;43.92;101051.72;1735961;82;20954;-82
2021/07/08 07:22:50;;;;;;;6.35;1.87;;;;;;;26.55;44.87;101052.46;1736326;82;21520;-83
2021/07/08 07:25:20;;;;;;;1.90;1.40;;;;;;;26.63;44.49;101057.11;1735247;82;21021;-82
2021/07/08 07:27:49;;;;;;;5.42;1.55;;;;;;;26.68;40.72;101057.33;1736358;82;21769;-78
2021/07/08 07:30:16;;;;;;;4.85;1.70;;;;;;;26.71;40.83;101066.91;1729272;82;20989;-89
2021/07/08 07:32:43;;;;;;;7.20;1.70;;;;;;;26.70;41.34;101058.47;1719965;82;20950;-85
2021/07/08 07:35:11;;;;;;;4.95;1.70;;;;;;;26.72;42.18;101066.69;1714172;82;21041;-87
2021/07/08 07:37:40;;;;;;;9.48;1.90;;;;;;;26.77;43.93;101069.61;1706862;82;21424;-81
2021/07/08 07:40:07;;;;;;;5.95;1.72;;;;;;;26.84;44.00;101068.25;1715491;81;21765;-87
2021/07/08 07:42:34;;;;;;;4.58;2.00;;;;;;;26.89;42.95;101079.80;1731014;82;20931;-87
2021/07/08 07:45:03;;;;;;;7.55;1.52;;;;;;;26.95;43.93;101078.97;1720385;82;20986;-87
2021/07/08 07:47:29;;;;;;;6.10;1.67;;;;;;;27.06;43.55;101078.34;1711190;82;21059;-88
2021/07/08 07:49:55;;;;;;;24.32;21.80;;;;;;;27.13;41.87;101085.94;1722181;82;21063;-86
2021/07/08 07:52:22;;;;;;;7.45;3.45;;;;;;;27.09;40.74;101077.91;1714787;82;21850;-86
2021/07/08 07:54:48;;;;;;;7.67;1.80;;;;;;;27.05;41.86;101086.16;1716789;82;21044;-85
2021/07/08 07:57:15;;;;;;;5.20;1.60;;;;;;;27.08;41.22;101083.02;1712969;82;20961;-85
2021/07/08 07:59:41;;;;;;;5.53;1.70;;;;;;;27.08;39.49;101087.09;1708436;82;20989;-85
2021/07/08 08:02:17;;;;;;;4.70;1.72;;;;;;;27.06;40.33;101091.89;1716273;82;21012;-82
2021/07/08 08:04:56;;;;;;;5.22;1.55;;;;;;;27.14;39.51;101079.99;1713771;82;21861;-82
2021/07/08 08:10:08;;;;;;;6.95;1.30;;;;;;;27.34;39.17;101087.00;1708608;82;21488;-79
2021/07/08 08:12:34;;;;;;;7.55;1.50;;;;;;;27.43;38.95;101096.27;1706722;84;21009;-79
2021/07/08 08:15:07;;;;;;;13.90;1.80;;;;;;;27.48;38.82;101100.50;1727413;81;21139;-81
2021/07/08 08:17:35;;;;;;;5.40;1.60;;;;;;;27.59;37.78;101098.47;1729677;82;21844;-81
2021/07/08 08:20:03;;;;;;;8.73;1.60;;;;;;;27.70;36.65;101103.27;1735284;82;20942;-81
2021/07/08 08:22:30;;;;;;;5.15;1.52;;;;;;;27.76;37.05;101099.66;1725307;82;21006;-81
2021/07/08 08:24:56;;;;;;;2.55;1.45;;;;;;;27.81;37.74;101094.96;1728931;82;20950;-83
2021/07/08 08:27:23;;;;;;;4.08;1.40;;;;;;;27.87;36.74;101096.25;1722880;82;21451;-82
2021/07/08 08:29:49;;;;;;;6.95;1.30;;;;;;;27.91;36.88;101098.86;1718841;82;22348;-81
2021/07/08 08:32:16;;;;;;;3.60;1.40;;;;;;;28.01;36.47;101100.27;1722514;82;20929;-81
2021/07/08 08:34:44;;;;;;;3.75;1.40;;;;;;;28.11;36.96;101106.05;1725619;81;22481;-83
2021/07/08 08:37:13;;;;;;;5.00;1.20;;;;;;;28.19;35.31;101101.18;1713661;81;21396;-78
2021/07/08 08:39:39;;;;;;;5.25;1.40;;;;;;;28.28;36.20;101106.31;1722196;82;21427;-80
2021/07/08 08:42:08;;;;;;;6.28;3.92;;;;;;;28.34;34.52;101100.88;1724270;82;22837;-79
2021/07/08 08:44:36;;;;;;;3.22;1.32;;;;;;;28.41;34.68;101098.12;1721509;82;20945;-77
2021/07/08 08:47:08;;;;;;;3.58;1.40;;;;;;;28.47;32.59;101100.78;1715997;82;20977;-81
2021/07/08 08:49:39;;;;;;;5.87;1.50;;;;;;;28.46;33.61;101103.17;1698655;82;23368;-80
2021/07/08 08:52:07;;;;;;;4.03;1.30;;;;;;;28.50;34.56;101098.14;1714370;81;21389;-82
2021/07/08 08:54:35;;;;;;;2.65;1.32;;;;;;;28.57;34.93;101100.78;1726592;82;21817;-79
2021/07/08 08:57:03;;;;;;;8.35;2.30;;;;;;;28.66;34.16;101096.73;1707025;82;21381;-79
2021/07/08 08:59:30;;;;;;;8.18;4.75;;;;;;;28.75;34.69;101096.75;1722087;82;21428;-80
2021/07/08 09:02:17;;;;;;;5.55;2.08;;;;;;;28.87;35.10;101091.42;1711173;82;21369;-80
2021/07/08 09:04:48;;;;;;;5.00;1.82;;;;;;;28.87;33.91;101090.89;1731131;81;20951;-84
2021/07/08 09:07:34;;;;;;;2.50;1.20;;;;;;;28.89;34.68;101096.97;1734540;82;21803;-83
2021/07/08 09:10:11;;;;;;;5.50;1.60;;;;;;;28.90;32.76;101095.91;1735653;81;21000;-83
2021/07/08 09:12:38;;;;;;;3.87;1.67;;;;;;;28.79;33.49;101100.70;1736013;81;21076;-83
2021/07/08 09:15:17;;;;;;;4.37;1.70;;;;;;;28.76;34.11;101103.88;1735909;81;20982;-83
2021/07/08 09:17:44;;;;;;;6.30;1.92;;;;;;;28.76;34.30;101096.55;1743963;82;20993;-82
2021/07/08 09:20:15;;;;;;;3.08;1.80;;;;;;;28.80;33.91;101100.47;1744128;81;22206;-83
2021/07/08 09:22:44;;;;;;;3.10;1.70;;;;;;;28.86;35.04;101097.92;1744391;82;20981;-83
2021/07/08 09:25:25;;;;;;;10.95;1.80;;;;;;;28.93;35.29;101096.80;1744077;82;21052;-83
2021/07/08 09:28:15;;;;;;;4.87;1.85;;;;;;;29.01;35.94;101101.95;1744282;81;21005;-83
2021/07/08 09:30:43;;;;;;;3.75;1.57;;;;;;;29.10;34.98;101102.49;1713087;83;21000;-81
2021/07/08 09:33:40;;;;;;;4.55;1.90;;;;;;;29.19;34.87;101107.94;1703978;81;21706;-83
2021/07/08 09:36:15;;;;;;;3.45;1.87;;;;;;;29.27;34.15;101104.09;1715204;82;21020;-84
2021/07/08 09:38:46;;;;;;;4.85;1.75;;;;;;;29.31;34.35;101107.47;1714928;83;20950;-84
2021/07/08 09:41:16;;;;;;;5.55;1.80;;;;;;;29.33;32.80;101102.63;1686259;83;21045;-84
2021/07/08 09:43:45;;;;;;;5.00;1.60;;;;;;;29.29;34.57;101098.71;1714910;82;20941;-83
2021/07/08 09:46:13;;;;;;;3.25;1.77;;;;;;;29.32;34.44;101096.05;1714635;83;21843;-85
2021/07/08 09:48:56;;;;;;;12.37;2.33;;;;;;;29.35;35.01;101095.09;1714519;83;21048;-84
2021/07/08 09:51:30;;;;;;;5.85;2.00;;;;;;;29.66;34.27;101093.78;1688149;83;21456;-83
2021/07/08 09:54:05;;;;;;;13.00;2.45;;;;;;;29.66;34.27;101093.78;1726070;82;20994;-83
2021/07/08 09:56:42;;;;;;;3.98;1.70;;;;;;;29.72;34.88;101091.48;1719595;82;21001;-83
2021/07/08 09:58:57;;;;;;;7.15;1.82;;;;;;;29.87;34.25;101091.37;1684153;83;22667;-84
2021/07/08 10:01:25;;;;;;;4.75;1.70;;;;;;;29.90;33.63;101083.27;1714632;83;21430;-83
2021/07/08 10:03:53;;;;;;;3.95;1.75;;;;;;;29.94;34.16;101087.20;1686015;83;21040;-83
2021/07/08 10:06:20;;;;;;;7.47;1.90;;;;;;;29.92;35.45;101082.00;1714600;82;20981;-84
2021/07/08 10:08:47;;;;;;;4.45;1.77;;;;;;;29.92;35.45;101082.00;1743593;82;21364;-83
2021/07/08 10:11:15;;;;;;;5.17;1.70;;;;;;;30.17;35.02;101075.55;1744113;82;22457;-80
2021/07/08 10:13:43;;;;;;;7.67;2.70;;;;;;;30.17;35.02;101075.55;1744182;82;21052;-82
2021/07/08 10:16:15;;;;;;;9.75;2.20;;;;;;;30.35;35.69;101074.64;1741028;81;20949;-81
2021/07/08 10:18:43;;;;;;;6.55;1.57;;;;;;;30.55;33.85;101071.03;1735925;82;20981;-81
2021/07/08 10:21:10;;;;;;;6.65;2.15;;;;;;;30.55;33.85;101071.03;1729527;82;21460;-80
2021/07/08 10:23:38;;;;;;;7.50;1.67;;;;;;;30.59;34.56;101064.02;1722199;82;21821;-80
2021/07/08 10:26:08;;;;;;;5.87;1.80;;;;;;;30.75;34.46;101068.80;1710026;82;21658;-84
2021/07/08 10:28:37;;;;;;;7.55;1.87;;;;;;;30.89;34.36;101065.84;1708035;82;20953;-84
2021/07/08 10:31:05;;;;;;;3.27;1.50;;;;;;;31.03;34.22;101069.42;1727032;82;20949;-80
2021/07/08 10:33:31;;;;;;;3.52;1.50;;;;;;;31.26;34.41;101076.74;1723339;82;21008;-79
2021/07/08 10:35:59;;;;;;;5.62;1.30;;;;;;;31.41;31.83;101075.41;1718509;82;21448;-82
2021/07/08 10:38:41;;;;;;;7.62;1.57;;;;;;;31.33;31.69;101073.34;1706734;84;21345;-82
2021/07/08 10:41:17;;;;;;;5.72;1.67;;;;;;;31.22;32.05;101074.75;1716304;82;21481;-83
2021/07/08 10:43:45;;;;;;;6.10;1.40;;;;;;;31.07;31.81;101073.85;1736048;82;20958;-83
2021/07/08 10:46:15;;;;;;;4.30;1.55;;;;;;;31.01;31.57;101066.64;1736006;82;21045;-82
2021/07/08 10:48:49;;;;;;;6.17;1.60;;;;;;;30.93;32.18;101064.28;1722537;82;21804;-81
2021/07/08 10:51:44;;;;;;;6.17;1.35;;;;;;;30.89;33.05;101066.67;1726171;82;21081;-82
2021/07/08 10:54:30;;;;;;;2.50;1.30;;;;;;;31.08;32.78;101074.17;1721774;82;21002;-81
2021/07/08 10:56:59;;;;;;;4.83;1.50;;;;;;;31.25;32.96;101080.55;1734291;81;21044;-79
2021/07/08 10:59:42;;;;;;;4.20;1.50;;;;;;;31.50;33.12;101073.95;1721350;81;21032;-82
2021/07/08 11:02:09;;;;;;;7.12;1.47;;;;;;;31.72;33.25;101079.55;1723677;82;21818;-83
2021/07/08 11:04:50;;;;;;;5.37;1.52;;;;;;;31.92;31.76;101075.86;1724789;82;20942;-79
2021/07/08 11:07:19;;;;;;;2.90;1.40;;;;;;;32.04;32.55;101078.52;1720583;82;21002;-80
2021/07/08 11:10:06;;;;;;;6.55;1.57;;;;;;;32.19;32.57;101080.98;1722150;82;20965;-79
2021/07/08 11:12:35;;;;;;;2.52;1.45;;;;;;;32.38;31.85;101069.83;1724117;82;20997;-80
2021/07/08 11:15:04;;;;;;;6.00;1.45;;;;;;;32.59;32.01;101066.32;1712641;82;20938;-80
2021/07/08 11:17:43;;;;;;;6.30;1.60;;;;;;;32.75;32.25;101066.02;1728565;82;21047;-79
2021/07/08 11:20:32;;;;;;;12.65;5.03;;;;;;;32.80;30.56;101067.98;1727674;82;21027;-81
2021/07/08 11:23:39;;;;;;;4.65;1.70;;;;;;;32.62;30.77;101069.09;1734303;82;21056;-82
2021/07/08 11:26:07;;;;;;;3.45;1.45;;;;;;;32.52;31.57;101065.66;1733518;82;21084;-83
2021/07/08 11:28:33;;;;;;;3.75;1.37;;;;;;;32.64;31.83;101064.22;1704225;82;22663;-79
2021/07/08 11:31:07;;;;;;;4.35;1.50;;;;;;;32.74;30.70;101059.72;1731214;82;21040;-79
2021/07/08 11:33:42;;;;;;;3.30;1.50;;;;;;;32.87;30.78;101056.35;1729535;82;21111;-78